Decoded Metar for UBBQ ( in ) (IATA:) | Meteo·Mobile Aviation Weather
aviador You're here:

UBBQ Decoded Metar

in
Report Time2018-12-18 17:00:00
UTC Time2018-12-18 17:24:27
Flight Rules lifr LIFR
Wind170° at 04 kt
W.Decomp.*RWY 16: 3.9 kt HW 0.7 kt RCW
W.Rank170° ranks 8
Current wind is below 170° avg. (6.2)
Visibility4200 m
Phenomena:Light Drizzle
Mist
Clouds:Overcast 003 Hf
Expected CloudBase > 400 ft AGL from Temp-Dew spread
Ceiling300 ft
Temp05°C
Dew Point04°C (93% RH)
AAT2.2°C
QNH1026 hPa
Raw Report
METAR UBBQ 181700Z 17004KT 4200 -DZ BR OVC003 05/04 Q1026
R16/////// NOSIG RMK MT OBSC=

Extra information for UBBQ:More info

Social comments